sensor_id;sensor_type;location;lat;lon;timestamp;pressure;altitude;pressure_sealevel;temperature;humidity
67987;BME280;54767;53.800;15.956;2022-11-09T00:01:28;99765.20;;;11.35;73.80
67987;BME280;54767;53.800;15.956;2022-11-09T00:03:59;99758.19;;;11.35;73.84
67987;BME280;54767;53.800;15.956;2022-11-09T00:06:29;99754.34;;;11.33;73.99
67987;BME280;54767;53.800;15.956;2022-11-09T00:08:59;99757.52;;;11.32;73.91
67987;BME280;54767;53.800;15.956;2022-11-09T00:11:35;99759.10;;;11.29;74.09
67987;BME280;54767;53.800;15.956;2022-11-09T00:14:05;99753.67;;;11.28;74.05
67987;BME280;54767;53.800;15.956;2022-11-09T00:16:33;99752.27;;;11.29;73.99
67987;BME280;54767;53.800;15.956;2022-11-09T00:19:01;99751.73;;;11.29;73.90
67987;BME280;54767;53.800;15.956;2022-11-09T00:21:30;99744.91;;;11.29;73.78
67987;BME280;54767;53.800;15.956;2022-11-09T00:23:58;99748.42;;;11.29;73.90
67987;BME280;54767;53.800;15.956;2022-11-09T00:26:27;99744.41;;;11.27;73.87
67987;BME280;54767;53.800;15.956;2022-11-09T00:28:55;99745.82;;;11.26;73.81
67987;BME280;54767;53.800;15.956;2022-11-09T00:31:23;99748.45;;;11.26;73.89
67987;BME280;54767;53.800;15.956;2022-11-09T00:33:54;99750.70;;;11.27;73.96
67987;BME280;54767;53.800;15.956;2022-11-09T00:36:24;99750.17;;;11.29;73.94
67987;BME280;54767;53.800;15.956;2022-11-09T00:38:55;99752.45;;;11.29;73.88
67987;BME280;54767;53.800;15.956;2022-11-09T00:41:24;99753.86;;;11.28;73.86
67987;BME280;54767;53.800;15.956;2022-11-09T00:43:53;99757.55;;;11.27;73.90
67987;BME280;54767;53.800;15.956;2022-11-09T00:46:22;99753.71;;;11.25;73.91
67987;BME280;54767;53.800;15.956;2022-11-09T00:48:52;99744.95;;;11.25;73.88
67987;BME280;54767;53.800;15.956;2022-11-09T00:51:21;99744.08;;;11.25;73.86
67987;BME280;54767;53.800;15.956;2022-11-09T00:53:49;99747.05;;;11.26;73.85
67987;BME280;54767;53.800;15.956;2022-11-09T00:56:22;99747.92;;;11.26;73.74
67987;BME280;54767;53.800;15.956;2022-11-09T00:58:53;99738.30;;;11.25;73.88
67987;BME280;54767;53.800;15.956;2022-11-09T01:01:23;99743.20;;;11.24;73.68
67987;BME280;54767;53.800;15.956;2022-11-09T01:03:52;99745.31;;;11.23;73.78
67987;BME280;54767;53.800;15.956;2022-11-09T01:06:23;99741.98;;;11.22;73.85
67987;BME280;54767;53.800;15.956;2022-11-09T01:08:52;99733.41;;;11.23;73.74
67987;BME280;54767;53.800;15.956;2022-11-09T01:11:21;99728.34;;;11.23;73.63
67987;BME280;54767;53.800;15.956;2022-11-09T01:13:50;99735.85;;;11.24;73.66
67987;BME280;54767;53.800;15.956;2022-11-09T01:16:22;99739.36;;;11.23;73.77
67987;BME280;54767;53.800;15.956;2022-11-09T01:18:55;99740.42;;;11.22;73.59
67987;BME280;54767;53.800;15.956;2022-11-09T01:21:25;99740.44;;;11.21;73.50
67987;BME280;54767;53.800;15.956;2022-11-09T01:23:55;99740.26;;;11.21;73.63
67987;BME280;54767;53.800;15.956;2022-11-09T01:26:24;99742.52;;;11.22;73.58
67987;BME280;54767;53.800;15.956;2022-11-09T01:28:52;99744.44;;;11.24;73.51
67987;BME280;54767;53.800;15.956;2022-11-09T01:31:21;99746.17;;;11.25;73.58
67987;BME280;54767;53.800;15.956;2022-11-09T01:33:50;99738.48;;;11.24;73.41
67987;BME280;54767;53.800;15.956;2022-11-09T01:36:20;99743.40;;;11.24;73.56
67987;BME280;54767;53.800;15.956;2022-11-09T01:38:50;99736.22;;;11.22;73.78
67987;BME280;54767;53.800;15.956;2022-11-09T01:41:24;99734.98;;;11.22;73.77
67987;BME280;54767;53.800;15.956;2022-11-09T01:44:17;99736.38;;;11.23;73.70
67987;BME280;54767;53.800;15.956;2022-11-09T01:47:00;99740.41;;;11.24;73.60
67987;BME280;54767;53.800;15.956;2022-11-09T01:49:46;99737.95;;;11.24;73.47
67987;BME280;54767;53.800;15.956;2022-11-09T01:52:19;99734.10;;;11.23;73.62
67987;BME280;54767;53.800;15.956;2022-11-09T01:54:53;99729.20;;;11.23;73.73
67987;BME280;54767;53.800;15.956;2022-11-09T01:57:32;99732.54;;;11.22;73.52
67987;BME280;54767;53.800;15.956;2022-11-09T02:00:05;99730.28;;;11.21;73.53
67987;BME280;54767;53.800;15.956;2022-11-09T02:02:35;99721.85;;;11.22;73.56
67987;BME280;54767;53.800;15.956;2022-11-09T02:05:08;99716.94;;;11.24;73.53
67987;BME280;54767;53.800;15.956;2022-11-09T02:07:39;99717.28;;;11.25;73.53
67987;BME280;54767;53.800;15.956;2022-11-09T02:10:12;99714.82;;;11.25;73.44
67987;BME280;54767;53.800;15.956;2022-11-09T02:12:42;99706.77;;;11.23;73.47
67987;BME280;54767;53.800;15.956;2022-11-09T02:15:11;99714.85;;;11.22;73.48
67987;BME280;54767;53.800;15.956;2022-11-09T02:17:41;99711.55;;;11.21;73.76
67987;BME280;54767;53.800;15.956;2022-11-09T02:20:12;99712.05;;;11.21;73.71
67987;BME280;54767;53.800;15.956;2022-11-09T02:22:41;99712.56;;;11.22;73.43
67987;BME280;54767;53.800;15.956;2022-11-09T02:25:11;99709.77;;;11.21;73.46
67987;BME280;54767;53.800;15.956;2022-11-09T02:27:41;99713.29;;;11.20;73.37
67987;BME280;54767;53.800;15.956;2022-11-09T02:30:11;99713.31;;;11.18;73.42
67987;BME280;54767;53.800;15.956;2022-11-09T02:32:40;99710.35;;;11.17;73.59
67987;BME280;54767;53.800;15.956;2022-11-09T02:35:09;99711.05;;;11.17;73.69
67987;BME280;54767;53.800;15.956;2022-11-09T02:37:39;99710.17;;;11.16;73.60
67987;BME280;54767;53.800;15.956;2022-11-09T02:40:15;99705.44;;;11.17;73.73
67987;BME280;54767;53.800;15.956;2022-11-09T02:42:45;99704.36;;;11.19;73.64
67987;BME280;54767;53.800;15.956;2022-11-09T02:45:13;99699.81;;;11.19;73.74
67987;BME280;54767;53.800;15.956;2022-11-09T02:47:42;99703.69;;;11.17;73.66
67987;BME280;54767;53.800;15.956;2022-11-09T02:50:10;99702.13;;;11.15;73.67
67987;BME280;54767;53.800;15.956;2022-11-09T02:52:38;99701.45;;;11.13;73.78
67987;BME280;54767;53.800;15.956;2022-11-09T02:55:07;99701.44;;;11.13;73.66
67987;BME280;54767;53.800;15.956;2022-11-09T02:57:35;99700.91;;;11.14;73.80
67987;BME280;54767;53.800;15.956;2022-11-09T03:00:04;99702.30;;;11.14;73.83
67987;BME280;54767;53.800;15.956;2022-11-09T03:02:33;99704.07;;;11.13;73.93
67987;BME280;54767;53.800;15.956;2022-11-09T03:05:02;99710.92;;;11.11;73.87
67987;BME280;54767;53.800;15.956;2022-11-09T03:07:30;99714.96;;;11.09;74.07
67987;BME280;54767;53.800;15.956;2022-11-09T03:09:59;99710.08;;;11.08;73.96
67987;BME280;54767;53.800;15.956;2022-11-09T03:12:28;99711.48;;;11.06;73.84
67987;BME280;54767;53.800;15.956;2022-11-09T03:15:00;99718.84;;;11.06;73.72
67987;BME280;54767;53.800;15.956;2022-11-09T03:17:30;99722.53;;;11.05;73.63
67987;BME280;54767;53.800;15.956;2022-11-09T03:19:59;99713.42;;;11.04;73.95
67987;BME280;54767;53.800;15.956;2022-11-09T03:22:28;99724.83;;;11.03;73.88
67987;BME280;54767;53.800;15.956;2022-11-09T03:24:56;99710.98;;;11.02;74.00
67987;BME280;54767;53.800;15.956;2022-11-09T03:27:25;99715.20;;;11.01;73.92
67987;BME280;54767;53.800;15.956;2022-11-09T03:29:53;99711.35;;;11.01;73.92
67987;BME280;54767;53.800;15.956;2022-11-09T03:32:22;99705.92;;;11.02;73.97
67987;BME280;54767;53.800;15.956;2022-11-09T03:34:50;99710.65;;;11.01;74.00
67987;BME280;54767;53.800;15.956;2022-11-09T03:37:19;99713.45;;;11.01;74.13
67987;BME280;54767;53.800;15.956;2022-11-09T03:39:47;99709.27;;;10.99;74.17
67987;BME280;54767;53.800;15.956;2022-11-09T03:42:16;99710.67;;;10.97;74.25
67987;BME280;54767;53.800;15.956;2022-11-09T03:44:44;99712.62;;;10.96;74.11
67987;BME280;54767;53.800;15.956;2022-11-09T03:47:12;99710.16;;;10.96;74.23
67987;BME280;54767;53.800;15.956;2022-11-09T03:49:41;99705.09;;;10.97;74.15
67987;BME280;54767;53.800;15.956;2022-11-09T03:52:10;99706.48;;;10.98;74.11
67987;BME280;54767;53.800;15.956;2022-11-09T03:54:38;99704.05;;;10.96;74.03
67987;BME280;54767;53.800;15.956;2022-11-09T03:57:06;99699.86;;;10.94;74.15
67987;BME280;54767;53.800;15.956;2022-11-09T03:59:35;99701.62;;;10.93;74.16
67987;BME280;54767;53.800;15.956;2022-11-09T04:02:03;99698.48;;;10.91;74.19
67987;BME280;54767;53.800;15.956;2022-11-09T04:04:32;99695.31;;;10.92;74.09
67987;BME280;54767;53.800;15.956;2022-11-09T04:07:00;99684.46;;;10.93;74.13
67987;BME280;54767;53.800;15.956;2022-11-09T04:09:29;99679.55;;;10.94;74.19
67987;BME280;54767;53.800;15.956;2022-11-09T04:11:57;99674.83;;;10.94;74.44
67987;BME280;54767;53.800;15.956;2022-11-09T04:14:25;99680.43;;;10.94;74.37
67987;BME280;54767;53.800;15.956;2022-11-09T04:16:54;99678.14;;;10.93;74.37
67987;BME280;54767;53.800;15.956;2022-11-09T04:19:22;99675.89;;;10.92;74.47
67987;BME280;54767;53.800;15.956;2022-11-09T04:21:51;99674.48;;;10.93;74.33
67987;BME280;54767;53.800;15.956;2022-11-09T04:24:19;99675.35;;;10.94;74.21
67987;BME280;54767;53.800;15.956;2022-11-09T04:26:48;99675.85;;;10.95;74.20
67987;BME280;54767;53.800;15.956;2022-11-09T04:29:16;99682.34;;;10.96;74.22
67987;BME280;54767;53.800;15.956;2022-11-09T04:31:47;99675.69;;;10.95;74.28
67987;BME280;54767;53.800;15.956;2022-11-09T04:34:16;99680.09;;;10.92;74.24
67987;BME280;54767;53.800;15.956;2022-11-09T04:36:45;99682.90;;;10.92;74.42
67987;BME280;54767;53.800;15.956;2022-11-09T04:39:13;99691.48;;;10.91;74.22
67987;BME280;54767;53.800;15.956;2022-11-09T04:41:41;99694.98;;;10.91;74.11
67987;BME280;54767;53.800;15.956;2022-11-09T04:44:10;99698.83;;;10.91;74.14
67987;BME280;54767;53.800;15.956;2022-11-09T04:46:38;99699.71;;;10.89;74.20
67987;BME280;54767;53.800;15.956;2022-11-09T04:49:06;99703.93;;;10.88;74.11
67987;BME280;54767;53.800;15.956;2022-11-09T04:51:35;99696.95;;;10.86;74.09
67987;BME280;54767;53.800;15.956;2022-11-09T04:54:04;99705.17;;;10.84;74.24
67987;BME280;54767;53.800;15.956;2022-11-09T04:56:32;99704.30;;;10.85;74.18
67987;BME280;54767;53.800;15.956;2022-11-09T04:59:01;99704.13;;;10.85;74.12
67987;BME280;54767;53.800;15.956;2022-11-09T05:01:29;99705.17;;;10.86;74.17
67987;BME280;54767;53.800;15.956;2022-11-09T05:03:57;99706.58;;;10.84;74.19
67987;BME280;54767;53.800;15.956;2022-11-09T05:06:26;99698.89;;;10.83;74.32
67987;BME280;54767;53.800;15.956;2022-11-09T05:09:03;99687.88;;;10.82;74.20
67987;BME280;54767;53.800;15.956;2022-11-09T05:11:34;99687.52;;;10.83;74.29
67987;BME280;54767;53.800;15.956;2022-11-09T05:14:03;99688.73;;;10.85;74.28
67987;BME280;54767;53.800;15.956;2022-11-09T05:16:32;99685.22;;;10.86;74.32
67987;BME280;54767;53.800;15.956;2022-11-09T05:19:00;99688.90;;;10.85;74.28
67987;BME280;54767;53.800;15.956;2022-11-09T05:21:29;99687.85;;;10.85;74.49
67987;BME280;54767;53.800;15.956;2022-11-09T05:23:57;99681.55;;;10.84;74.53
67987;BME280;54767;53.800;15.956;2022-11-09T05:26:38;99690.83;;;10.84;74.40
67987;BME280;54767;53.800;15.956;2022-11-09T05:29:09;99698.52;;;10.85;74.46
67987;BME280;54767;53.800;15.956;2022-11-09T05:31:38;99701.83;;;10.87;74.46
67987;BME280;54767;53.800;15.956;2022-11-09T05:34:13;99702.70;;;10.88;74.21
67987;BME280;54767;53.800;15.956;2022-11-09T05:36:41;99694.67;;;10.87;74.30
67987;BME280;54767;53.800;15.956;2022-11-09T05:39:10;99698.34;;;10.85;74.34
67987;BME280;54767;53.800;15.956;2022-11-09T05:41:38;99691.70;;;10.83;74.37
67987;BME280;54767;53.800;15.956;2022-11-09T05:44:06;99693.64;;;10.83;74.45
67987;BME280;54767;53.800;15.956;2022-11-09T05:46:35;99706.05;;;10.84;74.39
67987;BME280;54767;53.800;15.956;2022-11-09T05:49:03;99703.61;;;10.85;74.23
67987;BME280;54767;53.800;15.956;2022-11-09T05:51:32;99700.28;;;10.84;74.20
67987;BME280;54767;53.800;15.956;2022-11-09T05:54:00;99701.67;;;10.84;74.36
67987;BME280;54767;53.800;15.956;2022-11-09T05:56:28;99700.30;;;10.82;74.19
67987;BME280;54767;53.800;15.956;2022-11-09T05:58:57;99700.31;;;10.81;74.17
67987;BME280;54767;53.800;15.956;2022-11-09T06:01:25;99700.15;;;10.80;74.37
67987;BME280;54767;53.800;15.956;2022-11-09T06:03:54;99697.32;;;10.81;74.24
67987;BME280;54767;53.800;15.956;2022-11-09T06:06:22;99703.98;;;10.82;74.22
67987;BME280;54767;53.800;15.956;2022-11-09T06:08:51;99695.92;;;10.81;74.15
67987;BME280;54767;53.800;15.956;2022-11-09T06:11:19;99685.61;;;10.81;74.07
67987;BME280;54767;53.800;15.956;2022-11-09T06:13:51;99683.68;;;10.80;74.18
67987;BME280;54767;53.800;15.956;2022-11-09T06:16:20;99682.47;;;10.79;74.13
67987;BME280;54767;53.800;15.956;2022-11-09T06:18:48;99683.52;;;10.79;74.22
67987;BME280;54767;53.800;15.956;2022-11-09T06:21:16;99680.89;;;10.80;74.32
67987;BME280;54767;53.800;15.956;2022-11-09T06:23:45;99682.28;;;10.82;74.18
67987;BME280;54767;53.800;15.956;2022-11-09T06:26:13;99678.05;;;10.84;74.22
67987;BME280;54767;53.800;15.956;2022-11-09T06:28:42;99683.65;;;10.84;74.36
67987;BME280;54767;53.800;15.956;2022-11-09T06:31:12;99684.02;;;10.83;74.14
67987;BME280;54767;53.800;15.956;2022-11-09T06:33:41;99681.57;;;10.82;74.25
67987;BME280;54767;53.800;15.956;2022-11-09T06:36:09;99687.18;;;10.81;74.30
67987;BME280;54767;53.800;15.956;2022-11-09T06:38:39;99693.29;;;10.83;74.19
67987;BME280;54767;53.800;15.956;2022-11-09T06:41:08;99698.02;;;10.83;74.20
67987;BME280;54767;53.800;15.956;2022-11-09T06:43:37;99699.25;;;10.82;74.16
67987;BME280;54767;53.800;15.956;2022-11-09T06:46:06;99702.59;;;10.81;74.20
67987;BME280;54767;53.800;15.956;2022-11-09T06:48:34;99709.44;;;10.78;74.13
67987;BME280;54767;53.800;15.956;2022-11-09T06:51:03;99714.52;;;10.75;74.13
67987;BME280;54767;53.800;15.956;2022-11-09T06:53:33;99722.07;;;10.74;74.03
67987;BME280;54767;53.800;15.956;2022-11-09T06:56:03;99725.40;;;10.73;74.12
67987;BME280;54767;53.800;15.956;2022-11-09T06:58:32;99729.77;;;10.73;73.97
67987;BME280;54767;53.800;15.956;2022-11-09T07:01:12;99737.12;;;10.73;74.08
67987;BME280;54767;53.800;15.956;2022-11-09T07:03:42;99729.77;;;10.72;74.08
67987;BME280;54767;53.800;15.956;2022-11-09T07:06:11;99730.48;;;10.71;74.02
67987;BME280;54767;53.800;15.956;2022-11-09T07:08:41;99719.81;;;10.71;74.23
67987;BME280;54767;53.800;15.956;2022-11-09T07:11:12;99725.94;;;10.71;74.14
67987;BME280;54767;53.800;15.956;2022-11-09T07:13:41;99724.70;;;10.72;74.07
67987;BME280;54767;53.800;15.956;2022-11-09T07:16:09;99725.23;;;10.73;74.04
67987;BME280;54767;53.800;15.956;2022-11-09T07:18:39;99724.70;;;10.74;74.13
67987;BME280;54767;53.800;15.956;2022-11-09T07:21:08;99724.02;;;10.72;74.17
67987;BME280;54767;53.800;15.956;2022-11-09T07:23:41;99726.46;;;10.71;74.06
67987;BME280;54767;53.800;15.956;2022-11-09T07:26:10;99730.65;;;10.72;74.11
67987;BME280;54767;53.800;15.956;2022-11-09T07:28:38;99709.30;;;10.74;74.05
67987;BME280;54767;53.800;15.956;2022-11-09T07:31:07;99704.55;;;10.75;74.01
67987;BME280;54767;53.800;15.956;2022-11-09T07:33:36;99707.86;;;10.77;74.01
67987;BME280;54767;53.800;15.956;2022-11-09T07:36:05;99714.15;;;10.78;74.00
67987;BME280;54767;53.800;15.956;2022-11-09T07:38:33;99710.30;;;10.78;74.00
67987;BME280;54767;53.800;15.956;2022-11-09T07:41:01;99715.72;;;10.79;74.02
67987;BME280;54767;53.800;15.956;2022-11-09T07:43:30;99721.85;;;10.79;73.99
67987;BME280;54767;53.800;15.956;2022-11-09T07:46:02;99723.93;;;10.81;73.95
67987;BME280;54767;53.800;15.956;2022-11-09T07:48:30;99730.39;;;10.83;73.81
67987;BME280;54767;53.800;15.956;2022-11-09T07:51:00;99736.34;;;10.85;73.90
67987;BME280;54767;53.800;15.956;2022-11-09T07:53:29;99734.58;;;10.88;74.09
67987;BME280;54767;53.800;15.956;2022-11-09T07:56:00;99720.39;;;10.88;73.75
67987;BME280;54767;53.800;15.956;2022-11-09T07:58:29;99722.14;;;10.88;73.86
67987;BME280;54767;53.800;15.956;2022-11-09T08:00:57;99723.88;;;10.89;73.65
67987;BME280;54767;53.800;15.956;2022-11-09T08:03:26;99720.89;;;10.90;73.70
67987;BME280;54767;53.800;15.956;2022-11-09T08:05:55;99724.02;;;10.94;73.64
67987;BME280;54767;53.800;15.956;2022-11-09T08:08:23;99726.64;;;10.95;73.68
67987;BME280;54767;53.800;15.956;2022-11-09T08:10:52;99721.38;;;10.95;73.63
67987;BME280;54767;53.800;15.956;2022-11-09T08:13:20;99720.84;;;10.97;73.59
67987;BME280;54767;53.800;15.956;2022-11-09T08:15:49;99721.88;;;10.98;73.63
67987;BME280;54767;53.800;15.956;2022-11-09T08:18:20;99728.52;;;11.00;73.67
67987;BME280;54767;53.800;15.956;2022-11-09T08:20:49;99725.52;;;11.02;73.45
67987;BME280;54767;53.800;15.956;2022-11-09T08:23:19;99736.38;;;11.03;73.46
67987;BME280;54767;53.800;15.956;2022-11-09T08:25:49;99729.36;;;11.04;73.38
67987;BME280;54767;53.800;15.956;2022-11-09T08:28:18;99720.10;;;11.03;73.48
67987;BME280;54767;53.800;15.956;2022-11-09T08:30:58;99722.55;;;11.02;73.58
67987;BME280;54767;53.800;15.956;2022-11-09T08:33:27;99726.92;;;11.01;73.45
67987;BME280;54767;53.800;15.956;2022-11-09T08:35:56;99727.64;;;11.01;73.73
67987;BME280;54767;53.800;15.956;2022-11-09T08:38:24;99721.13;;;11.04;73.84
67987;BME280;54767;53.800;15.956;2022-11-09T08:40:57;99719.54;;;11.05;73.70
67987;BME280;54767;53.800;15.956;2022-11-09T08:43:25;99715.87;;;11.06;73.81
67987;BME280;54767;53.800;15.956;2022-11-09T08:45:54;99706.76;;;11.06;73.58
67987;BME280;54767;53.800;15.956;2022-11-09T08:48:22;99707.11;;;11.05;73.81
67987;BME280;54767;53.800;15.956;2022-11-09T08:50:56;99713.05;;;11.06;73.74
67987;BME280;54767;53.800;15.956;2022-11-09T08:53:26;99712.70;;;11.08;73.66
67987;BME280;54767;53.800;15.956;2022-11-09T08:55:55;99712.32;;;11.10;73.86
67987;BME280;54767;53.800;15.956;2022-11-09T08:58:24;99707.73;;;11.13;73.85
67987;BME280;54767;53.800;15.956;2022-11-09T09:00:52;99703.00;;;11.14;73.77
67987;BME280;54767;53.800;15.956;2022-11-09T09:03:21;99711.77;;;11.13;73.78
67987;BME280;54767;53.800;15.956;2022-11-09T09:05:49;99716.33;;;11.12;73.87
67987;BME280;54767;53.800;15.956;2022-11-09T09:08:18;99715.64;;;11.12;73.79
67987;BME280;54767;53.800;15.956;2022-11-09T09:10:50;99718.95;;;11.14;73.76
67987;BME280;54767;53.800;15.956;2022-11-09T09:13:18;99721.38;;;11.17;73.70
67987;BME280;54767;53.800;15.956;2022-11-09T09:15:49;99725.94;;;11.17;73.75
67987;BME280;54767;53.800;15.956;2022-11-09T09:18:18;99727.48;;;11.19;73.73
67987;BME280;54767;53.800;15.956;2022-11-09T09:20:47;99728.54;;;11.19;73.91
67987;BME280;54767;53.800;15.956;2022-11-09T09:23:15;99731.70;;;11.18;73.75
67987;BME280;54767;53.800;15.956;2022-11-09T09:25:44;99733.10;;;11.18;73.75
67987;BME280;54767;53.800;15.956;2022-11-09T09:28:12;99739.39;;;11.20;73.80
67987;BME280;54767;53.800;15.956;2022-11-09T09:30:41;99744.28;;;11.21;73.73
67987;BME280;54767;53.800;15.956;2022-11-09T09:33:09;99741.45;;;11.22;73.82
67987;BME280;54767;53.800;15.956;2022-11-09T09:35:37;99743.39;;;11.23;73.81
67987;BME280;54767;53.800;15.956;2022-11-09T09:38:06;99745.66;;;11.22;73.80
67987;BME280;54767;53.800;15.956;2022-11-09T09:43:38;99740.05;;;11.25;73.89
67987;BME280;54767;53.800;15.956;2022-11-09T09:46:29;99743.52;;;11.27;73.78
67987;BME280;54767;53.800;15.956;2022-11-09T09:49:06;99754.38;;;11.29;73.90
67987;BME280;54767;53.800;15.956;2022-11-09T09:51:39;99753.85;;;11.29;73.71
67987;BME280;54767;53.800;15.956;2022-11-09T09:54:43;99766.29;;;11.29;73.86
67987;BME280;54767;53.800;15.956;2022-11-09T09:57:19;99769.80;;;11.29;73.88
67987;BME280;54767;53.800;15.956;2022-11-09T09:59:51;99767.85;;;11.31;73.88
67987;BME280;54767;53.800;15.956;2022-11-09T10:04:58;99769.38;;;11.36;74.05
67987;BME280;54767;53.800;15.956;2022-11-09T10:12:52;99774.59;;;11.41;73.93
67987;BME280;54767;53.800;15.956;2022-11-09T10:23:48;99770.40;;;11.39;74.03
67987;BME280;54767;53.800;15.956;2022-11-09T10:26:38;99770.95;;;11.38;74.15
67987;BME280;54767;53.800;15.956;2022-11-09T10:29:24;99771.13;;;11.37;74.19
67987;BME280;54767;53.800;15.956;2022-11-09T10:31:57;99771.11;;;11.39;74.25
67987;BME280;54767;53.800;15.956;2022-11-09T10:34:32;99776.88;;;11.40;74.29
67987;BME280;54767;53.800;15.956;2022-11-09T10:37:11;99777.21;;;11.41;74.32
67987;BME280;54767;53.800;15.956;2022-11-09T10:39:56;99767.42;;;11.40;74.46
67987;BME280;54767;53.800;15.956;2022-11-09T10:42:28;99769.17;;;11.40;74.69
67987;BME280;54767;53.800;15.956;2022-11-09T10:44:58;99771.11;;;11.40;74.33
67987;BME280;54767;53.800;15.956;2022-11-09T10:47:29;99775.28;;;11.42;74.60
67987;BME280;54767;53.800;15.956;2022-11-09T10:52:44;99767.40;;;11.42;74.59
67987;BME280;54767;53.800;15.956;2022-11-09T10:55:23;99762.48;;;11.42;74.78
67987;BME280;54767;53.800;15.956;2022-11-09T10:57:59;99764.08;;;11.41;74.58
67987;BME280;54767;53.800;15.956;2022-11-09T11:00:29;99760.92;;;11.42;74.84
67987;BME280;54767;53.800;15.956;2022-11-09T11:03:15;99755.48;;;11.43;74.94
67987;BME280;54767;53.800;15.956;2022-11-09T11:05:56;99755.45;;;11.45;74.97
67987;BME280;54767;53.800;15.956;2022-11-09T11:08:37;99758.61;;;11.46;75.03
67987;BME280;54767;53.800;15.956;2022-11-09T11:16:50;99758.73;;;11.50;75.17
67987;BME280;54767;53.800;15.956;2022-11-09T11:19:39;99760.27;;;11.53;75.17
67987;BME280;54767;53.800;15.956;2022-11-09T11:30:22;99756.59;;;11.56;75.18
67987;BME280;54767;53.800;15.956;2022-11-09T11:32:58;99769.72;;;11.57;75.15
67987;BME280;54767;53.800;15.956;2022-11-09T11:38:17;99790.90;;;11.60;75.10
67987;BME280;54767;53.800;15.956;2022-11-09T11:46:39;99810.17;;;11.60;75.29
67987;BME280;54767;53.800;15.956;2022-11-09T11:52:17;99805.56;;;11.65;75.27
67987;BME280;54767;53.800;15.956;2022-11-09T12:13:15;99797.98;;;11.68;75.44
67987;BME280;54767;53.800;15.956;2022-11-09T12:16:21;99800.80;;;11.69;75.47
67987;BME280;54767;53.800;15.956;2022-11-09T12:19:12;99797.44;;;11.71;75.57
67987;BME280;54767;53.800;15.956;2022-11-09T12:21:46;99797.78;;;11.73;75.59
67987;BME280;54767;53.800;15.956;2022-11-09T12:24:53;99791.46;;;11.74;75.69
67987;BME280;54767;53.800;15.956;2022-11-09T12:30:22;99771.98;;;11.76;75.84
67987;BME280;54767;53.800;15.956;2022-11-09T12:33:02;99769.14;;;11.80;75.92
67987;BME280;54767;53.800;15.956;2022-11-09T12:35:35;99759.81;;;11.84;75.95
67987;BME280;54767;53.800;15.956;2022-11-09T12:38:17;99752.27;;;11.87;76.05
67987;BME280;54767;53.800;15.956;2022-11-09T12:40:58;99751.70;;;11.90;75.96
67987;BME280;54767;53.800;15.956;2022-11-09T12:43:50;99742.73;;;11.92;76.01
67987;BME280;54767;53.800;15.956;2022-11-09T12:46:26;99733.36;;;11.97;76.35
67987;BME280;54767;53.800;15.956;2022-11-09T12:49:02;99727.52;;;12.04;76.42
67987;BME280;54767;53.800;15.956;2022-11-09T12:51:32;99720.73;;;12.13;76.56
67987;BME280;54767;53.800;15.956;2022-11-09T12:54:05;99719.23;;;12.22;76.70
67987;BME280;54767;53.800;15.956;2022-11-09T12:56:49;99719.47;;;12.30;76.54
67987;BME280;54767;53.800;15.956;2022-11-09T13:01:59;99728.30;;;12.38;76.21
67987;BME280;54767;53.800;15.956;2022-11-09T13:04:29;99733.34;;;12.41;76.17
67987;BME280;54767;53.800;15.956;2022-11-09T13:07:26;99729.11;;;12.43;76.02
67987;BME280;54767;53.800;15.956;2022-11-09T13:09:58;99729.27;;;12.45;75.90
67987;BME280;54767;53.800;15.956;2022-11-09T13:12:34;99724.36;;;12.44;75.84
67987;BME280;54767;53.800;15.956;2022-11-09T13:15:25;99725.92;;;12.45;75.86
67987;BME280;54767;53.800;15.956;2022-11-09T13:32:23;99725.71;;;12.48;75.97
67987;BME280;54767;53.800;15.956;2022-11-09T13:35:00;99733.06;;;12.49;75.96
67987;BME280;54767;53.800;15.956;2022-11-09T13:43:00;99742.18;;;12.50;76.01
67987;BME280;54767;53.800;15.956;2022-11-09T13:48:04;99739.24;;;12.47;76.00
67987;BME280;54767;53.800;15.956;2022-11-09T13:50:33;99739.62;;;12.45;76.02
67987;BME280;54767;53.800;15.956;2022-11-09T13:53:02;99741.90;;;12.45;76.07
67987;BME280;54767;53.800;15.956;2022-11-09T13:55:37;99748.23;;;12.45;75.98
67987;BME280;54767;53.800;15.956;2022-11-09T14:00:44;99760.17;;;12.43;76.09
67987;BME280;54767;53.800;15.956;2022-11-09T14:03:18;99760.91;;;12.40;76.18
67987;BME280;54767;53.800;15.956;2022-11-09T14:05:54;99762.49;;;12.40;76.24
67987;BME280;54767;53.800;15.956;2022-11-09T14:08:28;99760.55;;;12.40;76.24
67987;BME280;54767;53.800;15.956;2022-11-09T14:14:02;99763.36;;;12.41;76.31
67987;BME280;54767;53.800;15.956;2022-11-09T14:22:17;99754.42;;;12.39;76.35
67987;BME280;54767;53.800;15.956;2022-11-09T14:24:47;99756.34;;;12.40;76.43
67987;BME280;54767;53.800;15.956;2022-11-09T14:27:20;99750.73;;;12.40;76.42
67987;BME280;54767;53.800;15.956;2022-11-09T14:29:52;99753.92;;;12.38;76.42
67987;BME280;54767;53.800;15.956;2022-11-09T14:32:35;99757.29;;;12.36;76.55
67987;BME280;54767;53.800;15.956;2022-11-09T14:35:34;99754.49;;;12.36;76.58
67987;BME280;54767;53.800;15.956;2022-11-09T14:38:20;99754.63;;;12.39;76.45
67987;BME280;54767;53.800;15.956;2022-11-09T14:40:51;99759.86;;;12.39;76.55
67987;BME280;54767;53.800;15.956;2022-11-09T14:43:25;99757.42;;;12.39;76.50
67987;BME280;54767;53.800;15.956;2022-11-09T14:46:00;99757.25;;;12.39;76.57
67987;BME280;54767;53.800;15.956;2022-11-09T14:48:31;99751.31;;;12.37;76.46
67987;BME280;54767;53.800;15.956;2022-11-09T14:51:02;99756.08;;;12.34;76.54
67987;BME280;54767;53.800;15.956;2022-11-09T14:53:34;99761.52;;;12.35;76.51
67987;BME280;54767;53.800;15.956;2022-11-09T14:56:05;99759.59;;;12.36;76.49
67987;BME280;54767;53.800;15.956;2022-11-09T14:58:37;99753.06;;;12.37;76.49